Time;durP1;ratioP1;P1;durP2;ratioP2;P2;SDS_P1;SDS_P2;PMS_P1;PMS_P2;Temp;Humidity;BMP_temperature;BMP_pressure;BME280_temperature;BME280_humidity;BME280_pressure;Samples;Min_cycle;Max_cycle;Signal;HPM_P1;HPM_P2
2022/03/05 10:42:40;;;;;;;25.77;15.43;;;;;;;;;;6252406;22;20031;-95
2022/03/05 10:46:00;;;;;;;29.10;16.30;;;;;;;;;;6266242;22;20026;-96
2022/03/05 10:48:46;;;;;;;27.77;16.38;;;;;;;;;;6226934;22;20007;-96
2022/03/05 10:56:34;;;;;;;27.70;16.17;;;;;;;;;;6217759;22;20047;-90
2022/03/05 11:02:22;;;;;;;27.67;16.65;;;;;;;;;;6281279;22;20380;-96
2022/03/05 11:04:57;;;;;;;28.70;16.52;;;;;;;;;;6265740;22;20079;-96
2022/03/05 11:07:23;;;;;;;30.13;18.50;;;;;;;;;;6267476;22;20008;-96
2022/03/05 11:09:54;;;;;;;27.17;17.60;;;;;;;;;;6252921;23;20008;-95
2022/03/05 11:12:21;;;;;;;29.20;16.58;;;;;;;;;;6254129;23;20047;-96
2022/03/05 11:15:01;;;;;;;26.20;16.13;;;;;;;;;;6230187;23;20018;-96
2022/03/05 11:17:26;;;;;;;29.42;17.15;;;;;;;;;;6231724;23;20024;-96
2022/03/05 11:19:52;;;;;;;30.20;16.55;;;;;;;;;;6224743;23;20386;-96
2022/03/05 11:22:19;;;;;;;29.15;15.88;;;;;;;;;;6223245;23;20008;-95
2022/03/05 11:24:46;;;;;;;25.75;15.88;;;;;;;;;;6233005;23;20004;-94
2022/03/05 11:27:15;;;;;;;24.48;15.65;;;;;;;;;;6192015;23;20090;-95
2022/03/05 11:29:59;;;;;;;25.92;15.18;;;;;;;;;;6195696;23;20371;-93
2022/03/05 11:32:29;;;;;;;23.38;13.80;;;;;;;;;;6198948;23;20009;-96
2022/03/05 11:34:55;;;;;;;28.65;14.93;;;;;;;;;;6198585;23;20024;-96
2022/03/05 11:37:35;;;;;;;22.25;14.00;;;;;;;;;;6203728;23;19988;-96
2022/03/05 11:45:37;;;;;;;27.17;14.95;;;;;;;;;;6285667;22;20046;-96
2022/03/05 11:48:25;;;;;;;22.25;14.55;;;;;;;;;;6253112;23;20005;-96
2022/03/05 11:50:57;;;;;;;22.55;13.40;;;;;;;;;;6259844;23;20141;-94
2022/03/05 11:53:44;;;;;;;;;;;;;;;;;;;;;
2022/03/05 12:16:45;;;;;;;23.08;13.73;;;;;;;;;;6290477;22;20035;-96
2022/03/05 12:19:57;;;;;;;22.20;15.02;;;;;;;;;;6295746;22;20011;-96
2022/03/05 12:22:55;;;;;;;20.88;12.88;;;;;;;;;;6305730;22;20015;-93
2022/03/05 12:25:22;;;;;;;20.50;13.55;;;;;;;;;;6256656;22;20015;-96
2022/03/05 12:27:52;;;;;;;24.33;14.85;;;;;;;;;;6255513;22;20020;-96
2022/03/05 12:30:25;;;;;;;20.85;13.75;;;;;;;;;;6269091;22;20045;-96
2022/03/05 12:33:43;;;;;;;19.40;13.40;;;;;;;;;;6286600;22;20019;31
2022/03/05 12:36:26;;;;;;;23.63;14.35;;;;;;;;;;6213325;22;19922;-93
2022/03/05 12:38:58;;;;;;;20.83;14.18;;;;;;;;;;6231790;23;20095;-91
2022/03/05 12:41:36;;;;;;;19.45;13.52;;;;;;;;;;6237439;23;20020;-90
2022/03/05 12:44:26;;;;;;;20.40;13.57;;;;;;;;;;6246017;22;20020;-93
2022/03/05 12:47:08;;;;;;;19.73;13.27;;;;;;;;;;6261116;22;20012;-92
2022/03/05 12:49:59;;;;;;;19.55;12.90;;;;;;;;;;6279801;22;20114;-92
2022/03/05 12:53:06;;;;;;;21.20;13.38;;;;;;;;;;6290155;22;20046;-93
2022/03/05 12:55:43;;;;;;;19.98;13.75;;;;;;;;;;6271914;22;20020;-93
2022/03/05 12:59:10;;;;;;;18.58;12.90;;;;;;;;;;6293142;22;20076;-93
2022/03/05 13:02:20;;;;;;;19.50;13.10;;;;;;;;;;6265218;22;20076;-92
2022/03/05 13:05:55;;;;;;;19.63;12.93;;;;;;;;;;6232357;22;20040;-93
2022/03/05 13:09:35;;;;;;;18.38;13.50;;;;;;;;;;6237540;22;20056;-91
2022/03/05 13:12:44;;;;;;;21.52;13.77;;;;;;;;;;6274014;22;20028;-92
2022/03/05 13:15:30;;;;;;;22.95;13.57;;;;;;;;;;6231542;22;20004;-94
2022/03/05 13:18:30;;;;;;;20.90;13.52;;;;;;;;;;6241360;22;20051;-94
2022/03/05 13:21:00;;;;;;;19.73;11.93;;;;;;;;;;6081936;23;20082;-93
2022/03/05 13:23:26;;;;;;;22.52;13.77;;;;;;;;;;6100464;23;20023;-93
2022/03/05 13:25:52;;;;;;;20.17;12.15;;;;;;;;;;6224087;23;20411;-93
2022/03/05 13:28:22;;;;;;;22.17;13.02;;;;;;;;;;6224403;23;20011;-93
2022/03/05 13:31:15;;;;;;;21.13;12.25;;;;;;;;;;6225238;23;20121;-93
2022/03/05 13:33:54;;;;;;;20.73;12.48;;;;;;;;;;6245993;22;20004;-92
2022/03/05 13:41:54;;;;;;;21.38;13.20;;;;;;;;;;6226299;22;20015;-93
2022/03/05 13:45:16;;;;;;;20.63;12.70;;;;;;;;;;6225560;23;20024;-92
2022/03/05 13:51:36;;;;;;;20.25;12.80;;;;;;;;;;6177997;23;20036;-92
2022/03/05 13:54:37;;;;;;;22.25;13.55;;;;;;;;;;6161463;23;20001;-91
2022/03/05 14:00:21;;;;;;;19.77;12.75;;;;;;;;;;6266756;22;20467;-93
2022/03/05 14:03:17;;;;;;;22.35;13.32;;;;;;;;;;6236418;22;20019;-92
2022/03/05 14:05:46;;;;;;;22.42;12.93;;;;;;;;;;6255761;22;20016;-93
2022/03/05 14:08:16;;;;;;;19.85;12.35;;;;;;;;;;6239487;22;20346;-92
2022/03/05 14:11:14;;;;;;;18.98;12.15;;;;;;;;;;6255051;22;20044;-93
2022/03/05 14:20:18;;;;;;;18.90;12.40;;;;;;;;;;6264620;22;20041;-92
2022/03/05 14:23:43;;;;;;;26.42;13.05;;;;;;;;;;6268148;22;20012;-92
2022/03/05 14:29:47;;;;;;;19.85;12.52;;;;;;;;;;6275288;22;20011;-91
2022/03/05 14:32:57;;;;;;;20.88;12.40;;;;;;;;;;6244131;22;20042;-93
2022/03/05 14:36:14;;;;;;;21.83;12.13;;;;;;;;;;6248229;22;20015;-94
2022/03/05 14:41:39;;;;;;;19.43;12.27;;;;;;;;;;6251366;22;20035;-93
2022/03/05 14:44:05;;;;;;;18.90;11.68;;;;;;;;;;6234424;23;20320;-94
2022/03/05 14:46:37;;;;;;;18.70;11.30;;;;;;;;;;6229994;22;20052;-92
2022/03/05 14:52:03;;;;;;;23.17;11.95;;;;;;;;;;6260066;23;20020;-94
2022/03/05 14:55:08;;;;;;;20.10;12.55;;;;;;;;;;6246150;22;20020;-96
2022/03/05 14:57:36;;;;;;;17.52;11.23;;;;;;;;;;6230862;23;20499;-93
2022/03/05 15:06:26;;;;;;;19.27;12.15;;;;;;;;;;6268394;22;20094;-91
2022/03/05 15:08:52;;;;;;;21.90;12.73;;;;;;;;;;6205949;23;20022;-91
2022/03/05 15:11:18;;;;;;;20.77;12.43;;;;;;;;;;6224747;23;20036;-92
2022/03/05 15:13:50;;;;;;;22.02;13.65;;;;;;;;;;6228961;23;20065;-90
2022/03/05 15:16:16;;;;;;;23.20;14.98;;;;;;;;;;6262913;22;20000;-94
2022/03/05 15:18:42;;;;;;;21.45;12.65;;;;;;;;;;6252178;23;20016;-92
2022/03/05 15:21:11;;;;;;;22.08;12.80;;;;;;;;;;6260191;22;20054;-92
2022/03/05 15:23:39;;;;;;;19.55;13.23;;;;;;;;;;6265011;22;20004;-93
2022/03/05 15:26:06;;;;;;;19.70;13.52;;;;;;;;;;6259136;23;20004;-96
2022/03/05 15:28:35;;;;;;;19.75;12.35;;;;;;;;;;6231154;22;20036;-92
2022/03/05 15:31:03;;;;;;;19.95;12.73;;;;;;;;;;6266971;22;20139;-94
2022/03/05 15:33:29;;;;;;;20.80;13.05;;;;;;;;;;6250180;22;20032;-91
2022/03/05 15:36:04;;;;;;;20.33;12.73;;;;;;;;;;6227038;23;20037;-93
2022/03/05 15:38:43;;;;;;;24.10;14.35;;;;;;;;;;6271476;22;20031;-92
2022/03/05 15:41:20;;;;;;;23.27;14.88;;;;;;;;;;6255860;22;20019;-93
2022/03/05 15:44:20;;;;;;;22.50;13.48;;;;;;;;;;6248844;23;20019;-92
2022/03/05 15:47:10;;;;;;;20.02;12.00;;;;;;;;;;6226710;22;20025;-94
2022/03/05 15:49:37;;;;;;;;;;;;;;;;;;6232086;22;20023;-93
2022/03/05 15:55:44;;;;;;;20.15;11.48;;;;;;;;;;6262109;22;20057;-92
2022/03/05 18:22:50;;;;;;;66.60;26.40;;;;;;;;;;6245419;22;20028;-89
2022/03/05 18:25:17;;;;;;;35.28;18.27;;;;;;;;;;6224281;23;20016;-91
2022/03/05 18:27:43;;;;;;;23.55;15.23;;;;;;;;;;6226368;23;20087;-91
2022/03/05 18:30:10;;;;;;;26.25;15.25;;;;;;;;;;6255226;22;20004;-92
2022/03/05 18:32:35;;;;;;;25.38;15.38;;;;;;;;;;6264002;22;20395;-91
2022/03/05 18:35:02;;;;;;;40.60;24.25;;;;;;;;;;6264576;22;20007;-93
2022/03/05 18:37:28;;;;;;;54.83;30.55;;;;;;;;;;6240767;22;20003;-90
2022/03/05 18:39:54;;;;;;;33.78;21.02;;;;;;;;;;6265369;22;20006;-91
2022/03/05 18:42:25;;;;;;;39.65;21.20;;;;;;;;;;6264808;22;20011;-89
2022/03/05 18:44:52;;;;;;;27.13;16.35;;;;;;;;;;6290271;22;20003;-91
2022/03/05 18:47:18;;;;;;;21.70;13.40;;;;;;;;;;6260487;22;19995;-93
2022/03/05 18:49:43;;;;;;;22.27;14.15;;;;;;;;;;6266119;22;20010;-91
2022/03/05 18:52:12;;;;;;;27.42;16.48;;;;;;;;;;6267298;22;20002;-90
2022/03/05 19:07:36;;;;;;;26.95;13.93;;;;;;;;;;6221212;22;20056;-91
2022/03/05 19:10:05;;;;;;;24.90;14.68;;;;;;;;;;6258155;23;20007;-94
2022/03/05 19:12:32;;;;;;;29.15;17.48;;;;;;;;;;6259942;23;20427;-90
2022/03/05 19:15:04;;;;;;;32.75;17.48;;;;;;;;;;6234420;23;20057;-92
2022/03/05 19:17:29;;;;;;;24.00;14.07;;;;;;;;;;6235414;23;20130;-90
2022/03/05 19:19:57;;;;;;;22.17;13.85;;;;;;;;;;6204968;23;20009;-92
2022/03/05 19:22:22;;;;;;;23.55;14.18;;;;;;;;;;6228856;23;20024;-91
2022/03/05 19:24:48;;;;;;;26.33;15.55;;;;;;;;;;6229073;23;20004;-89
2022/03/05 19:27:13;;;;;;;25.15;15.82;;;;;;;;;;6204411;23;20014;-92
2022/03/05 19:29:39;;;;;;;27.90;15.73;;;;;;;;;;6228031;23;20331;-90
2022/03/05 19:32:05;;;;;;;25.27;14.52;;;;;;;;;;6231649;23;20008;-94
2022/03/05 19:34:32;;;;;;;22.13;13.50;;;;;;;;;;6254813;23;20050;-91
2022/03/05 19:36:57;;;;;;;26.08;15.65;;;;;;;;;;6232488;23;20007;-90
2022/03/05 19:39:25;;;;;;;23.85;15.43;;;;;;;;;;6231730;23;20024;-91
2022/03/05 19:41:51;;;;;;;23.83;14.90;;;;;;;;;;6207009;23;20436;-91
2022/03/05 19:44:18;;;;;;;25.95;15.02;;;;;;;;;;6230062;23;20004;-90
2022/03/05 19:46:44;;;;;;;27.00;16.33;;;;;;;;;;6231660;23;20008;-89
2022/03/05 19:49:26;;;;;;;26.77;16.77;;;;;;;;;;6232899;23;20008;-90
2022/03/05 19:52:04;;;;;;;25.33;15.60;;;;;;;;;;6232488;23;20004;-89
2022/03/05 19:54:34;;;;;;;;;;;;;;;;;;6261140;23;20477;-89
2022/03/05 19:57:02;;;;;;;27.58;16.02;;;;;;;;;;6236373;23;19908;-89
2022/03/05 19:59:29;;;;;;;34.63;18.23;;;;;;;;;;6259579;23;20059;-90
2022/03/05 20:01:57;;;;;;;33.20;18.45;;;;;;;;;;6263451;23;20015;-91
2022/03/05 20:04:22;;;;;;;30.73;17.85;;;;;;;;;;6226258;23;20008;-91
2022/03/05 20:06:48;;;;;;;33.00;17.92;;;;;;;;;;6223767;23;20020;-92
2022/03/05 20:09:13;;;;;;;29.38;16.50;;;;;;;;;;6223477;23;20091;-93
2022/03/05 20:11:39;;;;;;;31.52;17.15;;;;;;;;;;6222811;23;20019;-93
2022/03/05 20:14:04;;;;;;;29.77;17.08;;;;;;;;;;6223096;23;20075;-94
2022/03/05 20:16:29;;;;;;;28.92;17.25;;;;;;;;;;6223215;23;20485;-89
2022/03/05 20:18:55;;;;;;;28.83;16.38;;;;;;;;;;6222969;23;20195;-90
2022/03/05 20:21:20;;;;;;;29.60;17.00;;;;;;;;;;6223081;23;20004;-92
2022/03/05 20:23:46;;;;;;;26.38;16.33;;;;;;;;;;6223495;23;20031;-92
2022/03/05 20:26:13;;;;;;;30.00;17.20;;;;;;;;;;6222943;23;20016;-91
2022/03/05 20:28:38;;;;;;;29.92;16.83;;;;;;;;;;6223190;23;20008;-90
2022/03/05 20:31:04;;;;;;;28.88;17.38;;;;;;;;;;6223117;23;20011;-90
2022/03/05 20:33:31;;;;;;;29.70;16.58;;;;;;;;;;6222765;23;20087;-90
2022/03/05 20:35:56;;;;;;;32.33;16.33;;;;;;;;;;6223372;23;20015;-90
2022/03/05 20:38:24;;;;;;;28.80;15.50;;;;;;;;;;6197504;23;20036;-90
2022/03/05 20:40:50;;;;;;;30.73;16.15;;;;;;;;;;6248983;23;20000;-91
2022/03/05 20:43:16;;;;;;;28.88;15.10;;;;;;;;;;6222515;23;20078;-92
2022/03/05 20:45:42;;;;;;;27.95;15.77;;;;;;;;;;6222446;23;20062;-92
2022/03/05 20:48:09;;;;;;;29.73;15.70;;;;;;;;;;6222236;23;20004;-91
2022/03/05 20:50:35;;;;;;;27.42;14.82;;;;;;;;;;6222330;23;20000;-91
2022/03/05 20:53:03;;;;;;;27.83;15.15;;;;;;;;;;6222226;23;20027;-91
2022/03/05 20:55:28;;;;;;;25.17;14.43;;;;;;;;;;6222231;23;20027;-91
2022/03/05 20:57:54;;;;;;;28.38;16.08;;;;;;;;;;6222312;23;20004;-91
2022/03/05 21:00:22;;;;;;;27.65;15.05;;;;;;;;;;6222553;23;20304;-91
2022/03/05 21:02:48;;;;;;;25.27;15.63;;;;;;;;;;6222717;23;20031;-91
2022/03/05 21:05:14;;;;;;;24.98;14.65;;;;;;;;;;6222714;23;20000;-91
2022/03/05 21:07:40;;;;;;;25.42;14.57;;;;;;;;;;6221940;23;20016;-91
2022/03/05 21:10:08;;;;;;;27.52;14.40;;;;;;;;;;6222519;23;20019;-91
2022/03/05 21:12:35;;;;;;;23.45;14.25;;;;;;;;;;6221615;23;20008;-93
2022/03/05 21:15:04;;;;;;;21.23;11.98;;;;;;;;;;6221738;23;20046;-91
2022/03/05 21:17:30;;;;;;;23.80;13.52;;;;;;;;;;6221958;23;20011;-91
2022/03/05 21:19:56;;;;;;;19.73;12.23;;;;;;;;;;6221762;23;20012;-90
2022/03/05 21:22:23;;;;;;;25.08;12.95;;;;;;;;;;6221286;23;20008;-90
2022/03/05 21:24:48;;;;;;;24.33;13.10;;;;;;;;;;6197036;23;20012;-89
2022/03/05 21:27:17;;;;;;;24.65;13.20;;;;;;;;;;6221961;23;20367;-89
2022/03/05 21:29:43;;;;;;;21.15;13.30;;;;;;;;;;6221167;23;20013;-89
2022/03/05 21:32:09;;;;;;;18.65;12.57;;;;;;;;;;6221355;23;20062;-89
2022/03/05 21:34:36;;;;;;;21.33;12.50;;;;;;;;;;6197055;23;20008;-87
2022/03/05 21:37:01;;;;;;;22.48;13.02;;;;;;;;;;6220716;23;20004;-89
2022/03/05 21:39:29;;;;;;;22.85;13.48;;;;;;;;;;6221745;23;20042;-88
2022/03/05 21:41:55;;;;;;;23.25;12.32;;;;;;;;;;6226464;23;20008;-96
2022/03/05 21:44:24;;;;;;;22.73;12.80;;;;;;;;;;6238047;23;20087;-92
2022/03/05 21:46:50;;;;;;;19.63;11.98;;;;;;;;;;6192177;23;20004;-90
2022/03/05 21:49:31;;;;;;;23.25;13.45;;;;;;;;;;6268221;23;20000;-91
2022/03/05 21:52:01;;;;;;;22.13;12.77;;;;;;;;;;6236873;23;20035;-90
2022/03/05 21:54:29;;;;;;;26.55;14.13;;;;;;;;;;6231877;23;20435;-91
2022/03/05 21:56:55;;;;;;;29.45;15.93;;;;;;;;;;6228070;23;20079;-90
2022/03/05 21:59:21;;;;;;;24.65;14.18;;;;;;;;;;6255297;23;20004;-93
2022/03/05 22:01:47;;;;;;;27.95;14.95;;;;;;;;;;6232832;23;20027;-90
2022/03/05 22:04:14;;;;;;;27.65;15.50;;;;;;;;;;6260912;23;20435;-91
2022/03/05 22:06:43;;;;;;;29.13;16.05;;;;;;;;;;6209711;23;20035;-91
2022/03/05 22:09:09;;;;;;;27.08;15.88;;;;;;;;;;6241508;23;20027;-96
2022/03/05 22:11:34;;;;;;;25.33;15.07;;;;;;;;;;6262282;23;19996;-93
2022/03/05 22:14:00;;;;;;;25.05;13.18;;;;;;;;;;6267801;23;20004;-96
2022/03/05 22:16:29;;;;;;;22.73;12.07;;;;;;;;;;6267053;22;19992;-89
2022/03/05 22:18:58;;;;;;;21.92;12.63;;;;;;;;;;6272673;22;20004;-89
2022/03/05 22:21:28;;;;;;;18.27;10.73;;;;;;;;;;6272447;23;19996;-89
2022/03/05 22:23:53;;;;;;;19.10;11.73;;;;;;;;;;6271925;22;20035;-90
2022/03/05 22:26:21;;;;;;;21.83;12.15;;;;;;;;;;6272522;23;20008;-92
2022/03/05 22:28:47;;;;;;;21.33;12.90;;;;;;;;;;6271720;22;20008;-93
2022/03/05 22:31:20;;;;;;;21.33;11.43;;;;;;;;;;6271571;22;20043;-90
2022/03/05 22:33:47;;;;;;;21.17;12.15;;;;;;;;;;6274980;22;19992;-91
2022/03/05 22:36:14;;;;;;;21.35;12.38;;;;;;;;;;6273912;22;19992;-88
2022/03/05 22:38:51;;;;;;;26.67;13.38;;;;;;;;;;6249114;22;20052;-89
2022/03/05 22:41:18;;;;;;;21.20;11.20;;;;;;;;;;6227659;22;20004;-91
2022/03/05 22:43:48;;;;;;;20.15;12.57;;;;;;;;;;6247958;22;20092;-89
2022/03/05 22:46:15;;;;;;;22.38;12.38;;;;;;;;;;6247875;22;20023;-92
2022/03/05 22:48:44;;;;;;;18.65;10.98;;;;;;;;;;6248180;22;20323;-90
2022/03/05 22:51:12;;;;;;;19.35;11.50;;;;;;;;;;6273733;22;19995;-90
2022/03/05 22:53:37;;;;;;;20.15;12.57;;;;;;;;;;6269021;22;20012;-89
2022/03/05 22:56:04;;;;;;;24.63;12.20;;;;;;;;;;6275494;22;20019;-88
2022/03/05 22:58:34;;;;;;;;;;;;;;;;;;6276265;22;20004;-93
2022/03/05 23:01:23;;;;;;;18.23;10.35;;;;;;;;;;6275695;22;19911;-93
2022/03/05 23:06:24;;;;;;;20.58;10.73;;;;;;;;;;6237343;22;20024;-96
2022/03/05 23:11:34;;;;;;;18.08;10.73;;;;;;;;;;6306621;22;20018;-94
2022/03/05 23:14:01;;;;;;;20.52;11.80;;;;;;;;;;6278794;22;19996;-93
2022/03/05 23:16:27;;;;;;;19.25;11.75;;;;;;;;;;6280314;22;20003;-93
2022/03/05 23:18:52;;;;;;;25.65;13.00;;;;;;;;;;6281097;22;19999;-90
2022/03/05 23:21:18;;;;;;;21.55;13.40;;;;;;;;;;6304136;22;19996;-92
2022/03/05 23:23:52;;;;;;;22.13;12.45;;;;;;;;;;6262978;22;20011;-94
2022/03/05 23:26:18;;;;;;;19.55;11.52;;;;;;;;;;6276511;22;19992;-91
2022/03/05 23:28:44;;;;;;;19.42;12.13;;;;;;;;;;6302570;22;20015;-90
2022/03/05 23:31:13;;;;;;;20.90;12.05;;;;;;;;;;6253760;22;20047;-90
2022/03/05 23:38:52;;;;;;;19.50;11.27;;;;;;;;;;6236012;22;20008;-90
2022/03/05 23:41:20;;;;;;;21.45;12.02;;;;;;;;;;6244876;22;20059;-91
2022/03/05 23:43:51;;;;;;;20.50;11.98;;;;;;;;;;6242072;22;20030;-90
2022/03/05 23:46:16;;;;;;;19.52;12.85;;;;;;;;;;6186867;23;20005;-90
2022/03/05 23:48:42;;;;;;;20.10;11.52;;;;;;;;;;6201800;23;20392;-88
